Time;durP1;ratioP1;P1;durP2;ratioP2;P2;SDS_P1;SDS_P2;PMS_P1;PMS_P2;Temp;Humidity;BMP_temperature;BMP_pressure;BME280_temperature;BME280_humidity;BME280_pressure;Samples;Min_cycle;Max_cycle;Signal;HPM_P1;HPM_P2
2022/05/05 00:04:38;;;;;;;4.13;2.47;;;;;;;24.00;41.61;100572.69;20437843;28;100150;-76
2022/05/05 00:14:40;;;;;;;3.00;2.22;;;;;;;24.00;41.57;100572.69;20448547;28;97208;-75
2022/05/05 00:24:41;;;;;;;2.92;2.35;;;;;;;23.98;41.58;100578.13;20450382;28;100394;-75
2022/05/05 00:34:42;;;;;;;2.70;2.47;;;;;;;23.95;41.75;100576.59;20439545;28;100485;-75
2022/05/05 00:44:43;;;;;;;3.42;2.28;;;;;;;23.92;41.77;100574.19;20448181;28;98178;-75
2022/05/05 00:54:44;;;;;;;2.97;2.30;;;;;;;23.88;42.04;100564.00;20449440;28;99893;-75
2022/05/05 01:04:46;;;;;;;2.67;2.30;;;;;;;23.88;41.88;100572.78;20445581;28;100263;-76
2022/05/05 01:14:47;;;;;;;4.47;2.28;;;;;;;23.89;41.97;100570.94;20443897;28;96919;-76
2022/05/05 01:35:07;;;;;;;2.65;2.17;;;;;;;23.86;42.11;100593.22;20432235;28;97007;-76
2022/05/05 01:45:08;;;;;;;3.65;2.40;;;;;;;23.83;42.23;100598.78;20441303;28;98652;-76
2022/05/05 01:55:09;;;;;;;3.00;2.33;;;;;;;23.84;42.15;100613.69;20435083;28;97409;-76
2022/05/05 02:05:10;;;;;;;3.40;2.40;;;;;;;23.80;42.11;100621.03;20442877;28;98447;-76
2022/05/05 02:15:13;;;;;;;2.80;2.37;;;;;;;23.80;42.31;100636.91;20441896;28;98372;-75
2022/05/05 02:25:13;;;;;;;2.88;2.03;;;;;;;23.78;42.35;100659.16;20430714;28;98465;-75
2022/05/05 02:35:14;;;;;;;3.50;2.47;;;;;;;23.77;42.19;100646.91;20441325;28;97414;-76
2022/05/05 02:45:15;;;;;;;2.30;2.10;;;;;;;23.76;42.25;100646.03;20439451;28;97015;-76
2022/05/05 02:55:16;;;;;;;3.37;2.40;;;;;;;23.77;42.03;100631.03;20446659;28;97472;-75
2022/05/05 03:05:16;;;;;;;3.03;2.58;;;;;;;23.75;42.32;100635.59;20439375;28;97674;-75
2022/05/05 03:15:17;;;;;;;2.42;1.95;;;;;;;23.71;42.65;100632.38;20448576;28;97605;-76
2022/05/05 03:25:17;;;;;;;2.20;2.00;;;;;;;23.70;42.48;100636.00;20457622;28;99165;-75
2022/05/05 03:35:18;;;;;;;2.42;2.20;;;;;;;23.69;42.45;100641.41;20450290;28;99436;-76
2022/05/05 03:45:18;;;;;;;2.40;2.15;;;;;;;23.66;42.72;100630.13;20480956;28;98521;-75
2022/05/05 03:55:19;;;;;;;4.60;2.22;;;;;;;23.67;42.56;100612.47;20435225;28;97892;-76
2022/05/05 04:05:19;;;;;;;2.53;2.00;;;;;;;23.65;42.51;100599.34;20439627;28;97758;-76
2022/05/05 04:15:20;;;;;;;2.38;2.05;;;;;;;23.65;42.53;100595.91;20445269;28;97369;-75
2022/05/05 04:25:20;;;;;;;2.30;2.10;;;;;;;23.65;42.05;100604.66;20435219;28;96809;-75
2022/05/05 04:35:21;;;;;;;3.38;2.33;;;;;;;23.75;43.10;100643.53;20402099;28;102273;-74
2022/05/05 04:45:21;;;;;;;5.18;2.30;;;;;;;23.80;43.73;100649.25;20449690;28;97594;-74
2022/05/05 04:55:22;;;;;;;11.52;2.50;;;;;;;23.82;42.58;100671.97;20444863;28;98330;-74
2022/05/05 05:05:22;;;;;;;6.65;3.92;;;;;;;23.39;41.55;100670.28;20398416;28;99336;-72
2022/05/05 05:15:23;;;;;;;9.68;3.95;;;;;;;23.30;41.41;100671.88;20426635;28;98331;-75
2022/05/05 05:25:23;;;;;;;5.18;3.70;;;;;;;23.41;41.09;100663.06;20448822;28;101295;-77
2022/05/05 05:35:24;;;;;;;5.88;3.42;;;;;;;23.36;41.73;100675.81;20445837;28;98575;-76
2022/05/05 05:45:24;;;;;;;5.90;3.53;;;;;;;23.45;41.73;100676.88;20439784;28;97618;-77
2022/05/05 05:55:26;;;;;;;9.90;3.75;;;;;;;23.47;42.05;100678.41;20443218;28;96947;-78
2022/05/05 06:05:27;;;;;;;8.95;3.60;;;;;;;23.55;42.53;100691.00;20450593;28;97371;-77
2022/05/05 06:15:27;;;;;;;13.75;4.05;;;;;;;23.53;43.12;100686.78;20431036;28;97063;-77
2022/05/05 06:25:28;;;;;;;12.48;3.83;;;;;;;23.56;43.25;100699.75;20461999;28;99685;-76
2022/05/05 06:35:28;;;;;;;11.90;3.78;;;;;;;23.54;43.52;100701.69;20457665;28;97178;-77
2022/05/05 06:45:29;;;;;;;8.00;3.58;;;;;;;23.57;43.28;100712.84;20437307;28;98297;-75
2022/05/05 06:55:29;;;;;;;11.65;3.75;;;;;;;23.56;43.90;100707.66;20451361;28;97627;-78
2022/05/05 07:05:30;;;;;;;9.75;3.30;;;;;;;23.58;43.29;100711.03;20449774;28;101292;-76
2022/05/05 07:15:31;;;;;;;9.17;3.30;;;;;;;23.62;43.99;100728.31;20450395;28;97189;-75
2022/05/05 07:25:32;;;;;;;8.87;3.50;;;;;;;23.61;44.25;100727.50;20439479;28;98697;-77
2022/05/05 07:35:33;;;;;;;7.70;3.15;;;;;;;23.60;44.18;100735.56;20451014;28;97572;-78
2022/05/05 07:45:33;;;;;;;7.03;3.10;;;;;;;23.67;43.76;100739.38;20457037;28;97642;-77
2022/05/05 07:55:34;;;;;;;3.97;2.63;;;;;;;23.71;43.70;100745.25;20458285;28;97658;-78
2022/05/05 08:05:34;;;;;;;8.40;2.78;;;;;;;23.71;43.88;100743.44;20454611;28;98563;-78
2022/05/05 08:15:35;;;;;;;4.05;2.80;;;;;;;23.71;44.07;100754.00;20455914;28;97182;-79
2022/05/05 08:35:58;;;;;;;6.95;2.85;;;;;;;23.80;43.94;100760.31;20468935;28;97864;-77
2022/05/05 08:45:59;;;;;;;4.45;2.47;;;;;;;23.81;44.26;100754.06;20461798;28;97660;-78
2022/05/05 08:56:01;;;;;;;6.23;2.50;;;;;;;23.88;43.92;100751.78;20459156;28;97646;-76
2022/05/05 09:06:04;;;;;;;5.63;2.90;;;;;;;23.91;44.21;100757.66;20480882;28;96939;-77
2022/05/05 09:16:06;;;;;;;5.97;2.80;;;;;;;23.95;43.40;100763.56;20476273;28;97059;-77
2022/05/05 09:26:10;;;;;;;5.35;2.42;;;;;;;23.96;42.91;100778.44;20463363;28;97006;-76
2022/05/05 09:36:26;;;;;;;4.82;2.42;;;;;;;23.97;43.05;100780.13;20486643;28;96989;-77
2022/05/05 09:46:26;;;;;;;5.15;2.85;;;;;;;23.96;43.38;100774.00;20468260;28;97356;-75
2022/05/05 09:57:40;;;;;;;5.22;2.63;;;;;;;23.98;43.44;100753.53;20461524;28;97271;-76
2022/05/05 10:07:08;;;;;;;5.43;2.80;;;;;;;24.02;43.19;100740.88;20463420;28;97699;-76
2022/05/05 10:17:09;;;;;;;;;;;;;;;24.10;42.59;100738.44;20464565;28;97269;-76
2022/05/05 10:27:10;;;;;;;4.75;2.90;;;;;;;24.14;42.20;100728.44;20441879;28;98443;-77
2022/05/05 10:37:37;;;;;;;6.18;2.75;;;;;;;24.13;41.44;100738.19;20434276;28;98100;-78
2022/05/05 10:47:50;;;;;;;2.92;2.25;;;;;;;24.12;36.14;100733.88;20450481;28;97354;-78
2022/05/05 10:57:50;;;;;;;3.85;2.08;;;;;;;24.18;36.09;100716.66;20444337;28;101149;-78
2022/05/05 11:07:51;;;;;;;2.20;2.05;;;;;;;24.24;37.13;100723.19;20465980;28;97314;-78
2022/05/05 11:28:31;;;;;;;2.47;2.00;;;;;;;24.43;37.02;100707.41;20445443;28;97078;-78
2022/05/05 11:38:31;;;;;;;4.85;2.55;;;;;;;24.59;38.26;100706.91;20457422;28;98309;-78
2022/05/05 11:48:32;;;;;;;3.17;2.10;;;;;;;24.69;39.41;100687.63;20448878;28;100352;-77
2022/05/05 12:08:53;;;;;;;2.50;2.20;;;;;;;24.80;38.93;100676.09;20454306;28;97655;-78
2022/05/05 12:18:54;;;;;;;2.57;2.30;;;;;;;24.89;37.83;100677.91;20467287;28;98113;-78
2022/05/05 12:28:54;;;;;;;4.73;2.23;;;;;;;24.93;36.64;100647.53;20448060;28;101734;-77
2022/05/05 12:39:13;;;;;;;2.72;2.17;;;;;;;24.86;35.59;100651.72;20445293;28;97174;-78
2022/05/05 12:49:14;;;;;;;2.92;2.08;;;;;;;24.92;35.73;100651.97;20458205;28;97921;-78
2022/05/05 13:09:34;;;;;;;4.68;2.30;;;;;;;24.96;33.74;100627.88;20450845;28;97780;-77
2022/05/05 13:19:35;;;;;;;5.37;2.27;;;;;;;24.96;35.13;100620.75;20430243;28;100312;-76
2022/05/05 13:29:35;;;;;;;3.90;2.30;;;;;;;25.03;34.04;100621.88;20433538;28;97659;-76
2022/05/05 13:39:36;;;;;;;4.35;2.72;;;;;;;25.08;33.78;100613.53;20426009;28;100886;-77
2022/05/05 13:49:36;;;;;;;5.13;2.50;;;;;;;25.12;32.90;100601.69;20455917;28;98452;-77
2022/05/05 13:59:37;;;;;;;6.50;2.50;;;;;;;25.16;33.15;100596.91;20458019;28;97300;-76
2022/05/05 14:19:56;;;;;;;7.22;2.60;;;;;;;25.21;34.78;100576.16;20442643;28;101532;-77
2022/05/05 14:29:57;;;;;;;4.63;2.58;;;;;;;25.21;34.63;100586.75;20451139;28;97056;-75
2022/05/05 14:39:57;;;;;;;3.60;2.45;;;;;;;25.20;34.21;100593.03;20434415;28;97080;-77
2022/05/05 14:49:59;;;;;;;6.78;2.40;;;;;;;25.19;34.84;100578.09;20452278;28;97650;-76
2022/05/05 14:59:59;;;;;;;3.88;2.70;;;;;;;25.16;34.77;100589.81;20405329;28;99788;-78
2022/05/05 15:10:00;;;;;;;7.10;2.40;;;;;;;25.01;32.42;100581.47;20413919;28;100057;-78
2022/05/05 15:20:00;;;;;;;6.65;2.53;;;;;;;25.09;32.93;100573.63;20437940;28;97088;-78
2022/05/05 15:30:03;;;;;;;4.93;2.90;;;;;;;25.18;32.61;100560.53;20376458;28;1254259;-78
2022/05/05 15:40:08;;;;;;;3.67;2.50;;;;;;;25.22;33.61;100557.44;20449901;28;97067;-77
2022/05/05 15:50:10;;;;;;;4.15;2.30;;;;;;;25.30;31.76;100559.38;20447137;28;97446;-78
2022/05/05 16:00:15;;;;;;;3.17;2.60;;;;;;;25.34;31.94;100567.88;20433475;28;98369;-78
2022/05/05 16:10:22;;;;;;;4.75;2.70;;;;;;;25.52;31.84;100565.38;20431021;28;100554;-79
2022/05/05 16:20:23;;;;;;;5.65;2.70;;;;;;;25.49;31.46;100563.03;20442709;28;99086;-77
2022/05/05 16:30:23;;;;;;;4.93;2.73;;;;;;;25.43;31.43;100575.03;20445975;28;98170;-77
2022/05/05 16:40:26;;;;;;;5.47;2.30;;;;;;;25.38;30.81;100575.44;20447104;28;97580;-78
2022/05/05 16:50:28;;;;;;;4.20;2.60;;;;;;;25.26;30.27;100585.34;20445076;28;97287;-76
2022/05/05 17:00:30;;;;;;;6.35;2.85;;;;;;;25.22;30.07;100588.44;20429828;28;97881;-77
2022/05/05 17:10:30;;;;;;;;;;;;;;;25.18;30.10;100600.28;20447743;28;97890;-78
2022/05/05 17:20:35;;;;;;;2.90;2.65;;;;;;;25.07;30.06;100596.81;20439893;28;97069;-78
2022/05/05 17:30:39;;;;;;;8.55;3.30;;;;;;;24.88;30.65;100608.22;20437029;28;97986;-77
2022/05/05 17:40:39;;;;;;;9.30;2.83;;;;;;;24.84;30.87;100617.41;20424026;28;97144;-77
2022/05/05 17:50:40;;;;;;;5.28;3.42;;;;;;;24.85;31.01;100618.25;20425673;28;97962;-77
2022/05/05 18:00:41;;;;;;;9.13;4.40;;;;;;;24.82;31.61;100623.84;20445913;28;97533;-77
2022/05/05 18:10:41;;;;;;;9.35;4.18;;;;;;;24.73;32.76;100623.66;20421921;28;100158;-77
2022/05/05 18:20:43;;;;;;;9.02;3.83;;;;;;;24.76;32.83;100628.69;20444691;28;97160;-78
2022/05/05 18:30:45;;;;;;;9.52;4.38;;;;;;;24.80;33.68;100634.53;20421999;28;98417;-81
2022/05/05 18:40:45;;;;;;;6.60;3.78;;;;;;;24.62;33.89;100645.78;20427246;28;97017;-76
2022/05/05 18:50:46;;;;;;;11.55;3.95;;;;;;;24.61;34.33;100641.44;20414590;28;99906;-76
2022/05/05 19:00:46;;;;;;;5.18;3.80;;;;;;;24.72;34.39;100664.38;20384446;28;102235;-74
2022/05/05 19:10:47;;;;;;;9.77;4.10;;;;;;;24.76;35.01;100665.75;20418076;28;98068;-78
2022/05/05 19:20:48;;;;;;;8.15;3.97;;;;;;;24.74;34.93;100669.50;20446441;28;97233;-78
2022/05/05 19:30:49;;;;;;;6.50;3.85;;;;;;;24.75;35.02;100682.63;20419716;28;100945;-77
2022/05/05 19:40:50;;;;;;;14.40;4.00;;;;;;;24.72;35.20;100695.31;20417203;28;99453;-77
2022/05/05 19:50:50;;;;;;;8.90;4.40;;;;;;;24.61;35.46;100710.28;20422556;28;98657;-77
2022/05/05 20:11:10;;;;;;;4.45;3.70;;;;;;;24.50;35.79;100707.75;20437366;28;97765;-77
2022/05/05 20:21:12;;;;;;;6.35;3.70;;;;;;;24.46;36.16;100711.59;20438525;28;98162;-77
2022/05/05 20:31:13;;;;;;;5.45;3.50;;;;;;;24.45;36.39;100708.13;20443212;28;101629;-78
2022/05/05 20:41:14;;;;;;;6.70;3.80;;;;;;;24.44;36.41;100709.09;20430138;28;100997;-78
2022/05/05 20:51:14;;;;;;;4.35;3.45;;;;;;;24.45;36.44;100723.19;20448054;28;101276;-79
2022/05/05 21:01:15;;;;;;;4.50;3.42;;;;;;;24.42;36.84;100723.44;20439174;28;96976;-78
2022/05/05 21:11:17;;;;;;;5.73;3.80;;;;;;;24.41;37.34;100735.84;20449663;28;97394;-79
2022/05/05 21:31:37;;;;;;;6.53;3.58;;;;;;;24.44;37.40;100732.91;20435826;28;97377;-78
2022/05/05 21:41:37;;;;;;;6.75;3.42;;;;;;;24.46;37.53;100727.50;20432628;28;99984;-76
2022/05/05 21:51:38;;;;;;;5.18;3.45;;;;;;;24.46;37.55;100724.84;20441972;28;97367;-76
2022/05/05 22:01:39;;;;;;;4.28;3.40;;;;;;;24.47;37.34;100721.22;20432805;28;97432;-76
2022/05/05 22:11:39;;;;;;;5.27;3.50;;;;;;;24.48;37.30;100719.44;20438438;28;97948;-77
2022/05/05 22:21:40;;;;;;;5.25;3.65;;;;;;;24.45;37.35;100724.00;20441018;28;102327;-78
2022/05/05 22:31:42;;;;;;;3.83;3.20;;;;;;;24.44;37.30;100732.91;20442090;28;99481;-78
2022/05/05 22:41:51;;;;;;;5.10;3.50;;;;;;;24.44;37.60;100729.44;20446982;28;97926;-79
2022/05/05 22:51:52;;;;;;;4.68;3.33;;;;;;;24.42;37.91;100739.31;20439040;28;98821;-77
2022/05/05 23:01:52;;;;;;;4.53;3.05;;;;;;;24.41;37.88;100724.41;20429375;28;97834;-77
2022/05/05 23:11:53;;;;;;;4.03;3.53;;;;;;;24.39;37.88;100736.91;20445111;28;97640;-76
2022/05/05 23:21:53;;;;;;;3.63;3.10;;;;;;;24.36;38.09;100743.31;20446037;28;97723;-76
2022/05/05 23:31:54;;;;;;;6.70;3.40;;;;;;;24.33;38.39;100734.81;20450836;28;101014;-77
2022/05/05 23:41:54;;;;;;;4.07;2.73;;;;;;;24.30;38.33;100736.75;20457254;28;97042;-77
2022/05/05 23:51:55;;;;;;;3.65;3.30;;;;;;;24.29;38.33;100743.03;20435711;28;98180;-77
